createdAt,value
2019-05-02T00:03:10.373Z,14.83
2019-05-02T00:07:19.885Z,15.60
2019-05-02T00:15:38.290Z,15.93
2019-05-02T00:19:49.398Z,16.77
2019-05-02T00:23:54.315Z,16.53
2019-05-02T00:28:02.366Z,15.57
2019-05-02T00:32:11.390Z,15.13
2019-05-02T00:36:17.944Z,16.23
2019-05-02T00:40:25.572Z,16.27
2019-05-02T00:44:34.002Z,15.43
2019-05-02T00:48:46.523Z,15.73
2019-05-02T00:52:52.987Z,16.13
2019-05-02T00:57:21.747Z,15.70
2019-05-02T01:01:40.081Z,15.33
2019-05-02T01:05:48.106Z,15.77
2019-05-02T01:09:54.976Z,15.60
2019-05-02T01:14:22.503Z,15.63
2019-05-02T01:18:30.886Z,16.83
2019-05-02T01:22:38.849Z,15.93
2019-05-02T01:26:59.807Z,16.67
2019-05-02T01:31:23.949Z,17.37
2019-05-02T01:35:40.582Z,17.37
2019-05-02T01:39:46.662Z,17.07
2019-05-02T01:43:54.940Z,17.40
2019-05-02T01:48:04.950Z,17.97
2019-05-02T01:52:13.387Z,21.37
2019-05-02T01:56:18.862Z,21.67
2019-05-02T02:00:26.222Z,21.70
2019-05-02T02:04:38.849Z,20.37
2019-05-02T02:08:49.101Z,22.70
2019-05-02T02:13:03.383Z,22.07
2019-05-02T02:17:10.070Z,23.17
2019-05-02T02:21:33.298Z,21.67
2019-05-02T02:25:48.480Z,23.87
2019-05-02T02:29:54.679Z,23.27
2019-05-02T02:34:01.542Z,23.00
2019-05-02T02:38:08.589Z,22.93
2019-05-02T02:42:15.493Z,23.37
2019-05-02T02:46:30.892Z,22.87
2019-05-02T02:50:43.109Z,24.40
2019-05-02T02:54:46.316Z,24.30
2019-05-02T03:08:49.342Z,24.87
2019-05-02T03:13:21.311Z,25.70
2019-05-02T03:27:40.266Z,24.83
2019-05-02T03:35:55.021Z,31.00
2019-05-02T03:40:02.518Z,23.37
2019-05-02T03:44:24.831Z,29.50
2019-05-02T03:48:25.839Z,28.77
2019-05-02T03:52:36.794Z,27.47
2019-05-02T04:10:59.546Z,24.90
2019-05-02T04:24:16.068Z,19.70
2019-05-02T04:32:59.486Z,21.63
2019-05-02T04:37:07.925Z,19.33
2019-05-02T04:50:40.841Z,17.67
2019-05-02T04:54:48.809Z,18.90
2019-05-02T04:58:54.643Z,19.67
2019-05-02T05:03:07.256Z,18.87
2019-05-02T05:07:11.757Z,17.87
2019-05-02T05:11:24.832Z,18.90
2019-05-02T05:15:38.297Z,16.07
2019-05-02T05:19:40.843Z,20.17
2019-05-02T05:24:03.824Z,20.67
2019-05-02T05:28:11.571Z,18.83
2019-05-02T05:32:17.937Z,20.87
2019-05-02T05:36:33.801Z,14.40
2019-05-02T05:40:37.499Z,13.80
2019-05-02T05:49:20.318Z,17.50
2019-05-02T05:53:24.902Z,14.73
2019-05-02T05:57:35.860Z,15.17
2019-05-02T06:01:41.527Z,13.27
2019-05-02T06:05:50.280Z,18.93
2019-05-02T06:09:56.420Z,15.63
2019-05-02T06:18:22.602Z,14.53
2019-05-02T06:22:29.534Z,16.23
2019-05-02T06:26:49.971Z,15.37
2019-05-02T06:40:22.999Z,15.63
2019-05-02T06:44:28.506Z,11.40
2019-05-02T06:48:36.422Z,12.37
2019-05-02T06:52:43.644Z,12.43
2019-05-02T06:56:53.418Z,10.00
2019-05-02T07:01:01.606Z,10.90
2019-05-02T07:05:07.448Z,10.77
2019-05-02T07:09:15.860Z,9.03
2019-05-02T07:13:22.644Z,10.70
2019-05-02T07:17:37.812Z,8.30
2019-05-02T07:21:46.204Z,11.70
2019-05-02T07:25:51.868Z,8.63
2019-05-02T07:30:01.269Z,7.97
2019-05-02T07:34:12.979Z,9.87
2019-05-02T07:38:31.005Z,8.93
2019-05-02T07:42:41.834Z,9.70
2019-05-02T07:46:52.300Z,8.80
2019-05-02T07:50:59.383Z,8.40
2019-05-02T07:55:09.823Z,10.23
2019-05-02T07:59:18.608Z,9.90
2019-05-02T08:03:29.281Z,9.20
2019-05-02T08:07:35.055Z,9.77
2019-05-02T08:11:42.519Z,9.77
2019-05-02T08:15:50.805Z,9.03
2019-05-02T08:20:05.792Z,9.13
2019-05-02T08:24:12.293Z,7.97
2019-05-02T08:28:30.687Z,7.60
2019-05-02T08:32:41.817Z,7.53
2019-05-02T08:36:52.529Z,9.47
2019-05-02T08:41:00.044Z,9.67
2019-05-02T08:45:06.405Z,9.83
2019-05-02T08:49:14.160Z,9.27
2019-05-02T08:53:22.346Z,9.83
2019-05-02T08:57:29.963Z,9.93
2019-05-02T09:01:35.681Z,10.23
2019-05-02T09:05:46.070Z,12.90
2019-05-02T09:09:55.619Z,10.43
2019-05-02T09:14:02.185Z,9.80
2019-05-02T09:18:09.883Z,12.13
2019-05-02T09:26:36.075Z,10.70
2019-05-02T09:30:38.357Z,11.37
2019-05-02T09:34:45.435Z,8.00
2019-05-02T09:39:12.283Z,11.67
2019-05-02T09:43:22.849Z,11.03
2019-05-02T09:47:47.005Z,12.07
2019-05-02T09:51:45.390Z,12.87
2019-05-02T09:55:55.762Z,11.77
2019-05-02T09:59:58.759Z,11.63
2019-05-02T10:04:12.007Z,12.50
2019-05-02T10:08:18.282Z,12.30
2019-05-02T10:12:32.654Z,12.97
2019-05-02T10:16:39.027Z,11.20
2019-05-02T10:20:45.174Z,11.33
2019-05-02T10:24:52.511Z,10.43
2019-05-02T11:17:32.378Z,10.27
2019-05-02T11:21:53.481Z,11.17
2019-05-02T11:25:52.706Z,9.73
2019-05-02T11:44:48.988Z,10.80
2019-05-02T11:48:58.405Z,9.70
2019-05-02T11:53:09.197Z,8.60
2019-05-02T11:57:11.752Z,8.10
2019-05-02T12:01:32.767Z,10.57
2019-05-02T12:05:35.842Z,11.07
2019-05-02T12:09:52.087Z,9.77
2019-05-02T12:13:56.990Z,9.17
2019-05-02T12:18:08.368Z,10.90
2019-05-02T12:22:16.926Z,8.00
2019-05-02T12:26:25.403Z,9.07
2019-05-02T12:30:34.245Z,8.33
2019-05-02T12:34:42.700Z,10.10
2019-05-02T12:38:48.148Z,7.73
2019-05-02T12:42:54.672Z,9.77
2019-05-02T12:47:02.622Z,12.33
2019-05-02T12:51:09.364Z,12.33
2019-05-02T12:55:22.149Z,12.77
2019-05-02T12:59:27.739Z,13.13
2019-05-02T13:07:55.468Z,13.57
2019-05-02T13:12:09.850Z,9.60
2019-05-02T13:16:15.619Z,8.67
2019-05-02T13:20:24.608Z,9.53
2019-05-02T13:24:39.348Z,11.23
2019-05-02T13:28:45.700Z,9.03
2019-05-02T13:32:57.915Z,10.80
2019-05-02T13:37:22.525Z,10.27
2019-05-02T13:41:31.960Z,8.43
2019-05-02T13:45:56.684Z,10.47
2019-05-02T13:50:03.864Z,9.67
2019-05-02T13:54:12.553Z,10.30
2019-05-02T13:58:29.117Z,11.43
2019-05-02T14:03:15.187Z,10.67
2019-05-02T14:07:21.780Z,12.33
2019-05-02T14:11:46.455Z,13.30
2019-05-02T14:15:55.665Z,12.93
2019-05-02T14:20:10.381Z,13.60
2019-05-02T14:24:11.846Z,10.93
2019-05-02T14:28:22.416Z,14.53
2019-05-02T14:32:32.922Z,11.67
2019-05-02T14:36:47.068Z,9.83
2019-05-02T14:41:12.455Z,14.73
2019-05-02T14:45:30.827Z,12.67
2019-05-02T14:49:32.292Z,13.10
2019-05-02T14:53:38.545Z,11.70
2019-05-02T14:57:47.567Z,12.27
2019-05-02T15:02:07.548Z,13.00
2019-05-02T15:15:33.609Z,11.80
2019-05-02T15:19:37.227Z,13.23
2019-05-02T15:23:54.279Z,12.20
2019-05-02T15:28:05.145Z,12.10
2019-05-02T15:32:32.470Z,10.87
2019-05-02T15:36:45.873Z,11.63
2019-05-02T15:45:44.025Z,9.63
2019-05-02T15:49:50.271Z,11.77
2019-05-02T15:54:06.005Z,13.80
2019-05-02T15:58:16.831Z,11.33
2019-05-02T16:02:26.439Z,12.80
2019-05-02T16:06:33.881Z,12.70
2019-05-02T16:10:42.846Z,11.93
2019-05-02T16:14:52.748Z,11.13
2019-05-02T16:18:58.605Z,10.60
2019-05-02T16:23:05.457Z,10.73
2019-05-02T16:27:16.625Z,9.17
2019-05-02T16:31:26.647Z,10.90
2019-05-02T16:35:34.783Z,9.47
2019-05-02T16:43:52.001Z,9.50
2019-05-02T16:48:00.170Z,8.87
2019-05-02T16:52:28.727Z,7.33
2019-05-02T16:56:36.965Z,5.83
2019-05-02T17:05:09.689Z,4.80
2019-05-02T17:09:28.698Z,4.70
2019-05-02T17:13:35.643Z,5.60
2019-05-02T17:17:48.131Z,4.77
2019-05-02T17:21:56.454Z,5.40
2019-05-02T17:26:01.613Z,5.23
2019-05-02T17:30:07.159Z,6.10
2019-05-02T17:34:16.219Z,5.90
2019-05-02T17:38:28.884Z,6.03
2019-05-02T17:42:35.839Z,6.00
2019-05-02T17:46:50.730Z,5.83
2019-05-02T17:51:15.159Z,5.60
2019-05-02T17:55:21.583Z,5.73
2019-05-02T17:59:36.037Z,6.43
2019-05-02T18:03:42.373Z,6.73
2019-05-02T18:07:48.193Z,6.83
2019-05-02T18:11:56.716Z,6.53
2019-05-02T18:16:02.847Z,6.93
2019-05-02T18:20:12.292Z,7.83
2019-05-02T18:24:17.673Z,7.70
2019-05-02T18:28:26.464Z,8.07
2019-05-02T18:32:30.775Z,9.30
2019-05-02T18:36:37.185Z,8.43
2019-05-02T18:40:44.829Z,7.87
2019-05-02T18:48:58.617Z,8.60
2019-05-02T18:53:05.285Z,8.00
2019-05-02T18:57:17.137Z,8.60
2019-05-02T19:01:24.071Z,8.47
2019-05-02T19:05:32.395Z,8.87
2019-05-02T19:09:48.422Z,8.40
2019-05-02T19:13:47.610Z,8.30
2019-05-02T19:17:53.090Z,8.50
2019-05-02T19:22:07.403Z,9.83
2019-05-02T19:26:15.958Z,9.30
2019-05-02T19:30:27.341Z,9.63
2019-05-02T19:34:35.998Z,9.20
2019-05-02T19:38:43.362Z,9.53
2019-05-02T19:42:49.168Z,8.70
2019-05-02T19:46:57.979Z,9.23
2019-05-02T19:51:18.292Z,8.43
2019-05-02T19:55:19.950Z,8.60
2019-05-02T19:59:29.603Z,8.43
2019-05-02T20:03:36.634Z,8.57
2019-05-02T20:07:43.548Z,8.30
2019-05-02T20:11:49.062Z,10.17
2019-05-02T20:16:31.923Z,10.20
2019-05-02T20:20:57.249Z,10.10
2019-05-02T20:25:03.905Z,10.60
2019-05-02T20:29:09.545Z,8.43
2019-05-02T20:33:16.442Z,10.83
2019-05-02T20:37:23.023Z,10.23
2019-05-02T20:41:29.823Z,10.20
2019-05-02T20:45:35.335Z,10.93
2019-05-02T20:49:43.902Z,10.40
2019-05-02T20:53:49.811Z,10.87
2019-05-02T20:57:55.520Z,10.97
2019-05-02T21:02:21.996Z,10.67
2019-05-02T21:11:04.295Z,11.23
2019-05-02T21:15:12.504Z,10.77
2019-05-02T21:19:18.879Z,11.13
2019-05-02T21:23:25.145Z,10.97
2019-05-02T21:27:32.503Z,11.20
2019-05-02T21:31:38.931Z,11.07
2019-05-02T21:35:46.276Z,10.47
2019-05-02T21:39:52.472Z,11.90
2019-05-02T21:43:59.587Z,12.47
2019-05-02T21:52:35.157Z,11.83
2019-05-02T21:56:49.050Z,12.13
2019-05-02T22:01:05.503Z,12.17
2019-05-02T22:05:16.099Z,11.47
2019-05-02T22:09:23.117Z,12.63
2019-05-02T22:13:31.563Z,13.13
2019-05-02T22:17:38.747Z,10.40
2019-05-02T22:21:44.205Z,11.77
2019-05-02T22:25:52.670Z,12.13
2019-05-02T22:30:01.942Z,12.23
2019-05-02T22:34:12.829Z,12.27
2019-05-02T22:38:37.366Z,12.43
2019-05-02T22:42:48.550Z,13.20
2019-05-02T22:46:54.572Z,13.33
2019-05-02T22:51:05.539Z,13.30
2019-05-02T22:55:13.193Z,12.30
2019-05-02T22:59:19.508Z,13.27
2019-05-02T23:03:25.875Z,14.93
2019-05-02T23:07:53.582Z,12.97
2019-05-02T23:11:59.248Z,12.83
2019-05-02T23:16:05.609Z,13.27
2019-05-02T23:20:34.592Z,13.03
2019-05-02T23:29:02.300Z,13.13
2019-05-02T23:33:09.320Z,12.97
2019-05-02T23:37:17.463Z,13.47
2019-05-02T23:41:25.634Z,13.73
2019-05-02T23:45:35.070Z,13.50
2019-05-02T23:49:42.707Z,14.90
2019-05-02T23:53:52.921Z,13.63
2019-05-02T23:58:03.291Z,13.67
